Gorno-Altaysk, Russia
Current Conditions -  °F | °C
As of 9:00 AM on Sunday 21 Dec 2014 (Local Time) from UNBB Reporting Station
Clear Clear  
Wind Chill: -7°   Ceiling: Unl
Heat Index:   Visibility: 6mi
Dew Point:   Wind: 9mph
Humidity: 79%   Direction: 200°SSW
Pressure: 30.24"   Gusts: NA
Location:  51.96°N, 85.96°E
Report Text: UNBB 210200Z 20004MPS CAVOK M14/M17 Q1024 NOSIG RMK QFE746/099424800560
Loading
Personal Weather Stations






























Interactive Weather Map New forecast layout! Learn more

10-Day Weather Forecast

Advertisements
Track Severe Weather on mobile